createdAt,value
2022-12-18T00:00:07.320Z,-0.17
2022-12-18T00:03:01.755Z,-0.19
2022-12-18T00:05:30.282Z,-0.18
2022-12-18T00:07:58.299Z,-0.18
2022-12-18T00:10:26.651Z,-0.19
2022-12-18T00:12:54.884Z,-0.19
2022-12-18T00:15:23.100Z,-0.21
2022-12-18T00:17:51.077Z,-0.20
2022-12-18T00:20:26.550Z,-0.21
2022-12-18T00:22:54.889Z,-0.22
2022-12-18T00:25:23.262Z,-0.23
2022-12-18T00:27:51.767Z,-0.23
2022-12-18T00:30:19.984Z,-0.23
2022-12-18T00:32:48.235Z,-0.21
2022-12-18T00:35:16.415Z,-0.22
2022-12-18T00:37:44.592Z,-0.22
2022-12-18T00:40:13.823Z,-0.19
2022-12-18T00:42:57.033Z,-0.18
2022-12-18T00:45:31.449Z,-0.15
2022-12-18T00:47:59.626Z,-0.14
2022-12-18T00:50:28.148Z,-0.12
2022-12-18T00:52:56.263Z,-0.12
2022-12-18T00:55:24.486Z,-0.11
2022-12-18T00:57:53.768Z,-0.12
2022-12-18T01:00:21.739Z,-0.13
2022-12-18T01:02:51.175Z,-0.13
2022-12-18T01:05:19.515Z,-0.12
2022-12-18T01:07:47.927Z,-0.11
2022-12-18T01:10:16.199Z,-0.10
2022-12-18T01:12:44.878Z,-0.09
2022-12-18T01:15:15.043Z,-0.09
2022-12-18T01:17:43.474Z,-0.10
2022-12-18T01:20:13.816Z,-0.10
2022-12-18T01:22:41.849Z,-0.09
2022-12-18T01:25:10.461Z,-0.10
2022-12-18T01:27:38.817Z,-0.11
2022-12-18T01:30:07.893Z,-0.11
2022-12-18T01:32:36.072Z,-0.12
2022-12-18T01:35:04.667Z,-0.13
2022-12-18T01:37:32.832Z,-0.14
2022-12-18T01:40:00.843Z,-0.14
2022-12-18T01:42:28.954Z,-0.15
2022-12-18T01:45:00.030Z,-0.15
2022-12-18T01:47:52.557Z,-0.14
2022-12-18T01:50:28.767Z,-0.16
2022-12-18T01:53:01.425Z,-0.17
2022-12-18T01:55:32.598Z,-0.17
2022-12-18T01:58:01.907Z,-0.17
2022-12-18T02:00:30.497Z,-0.17
2022-12-18T02:02:58.829Z,-0.16
2022-12-18T02:05:37.575Z,-0.16
2022-12-18T02:08:13.567Z,-0.14
2022-12-18T02:10:49.404Z,-0.12
2022-12-18T02:13:28.735Z,-0.11
2022-12-18T02:16:20.683Z,-0.11
2022-12-18T02:18:55.239Z,-0.12
2022-12-18T02:21:32.583Z,-0.13
2022-12-18T02:24:29.429Z,-0.15
2022-12-18T02:27:05.925Z,-0.18
2022-12-18T02:29:43.533Z,-0.24
2022-12-18T02:32:18.056Z,-0.32
2022-12-18T02:34:47.318Z,-0.38
2022-12-18T02:37:20.350Z,-0.43
2022-12-18T02:39:51.166Z,-0.46
2022-12-18T02:42:20.437Z,-0.48
2022-12-18T02:44:52.579Z,-0.48
2022-12-18T02:47:35.071Z,-0.47
2022-12-18T02:50:23.674Z,-0.47
2022-12-18T02:53:23.291Z,-0.46
2022-12-18T02:55:57.406Z,-0.45
2022-12-18T02:58:56.005Z,-0.43
2022-12-18T03:02:22.176Z,-0.39
2022-12-18T03:05:04.125Z,-0.34
2022-12-18T03:08:11.275Z,-0.31
2022-12-18T03:10:46.960Z,-0.28
2022-12-18T03:13:34.587Z,-0.25
2022-12-18T03:16:06.561Z,-0.24
2022-12-18T03:18:40.183Z,-0.26
2022-12-18T03:21:12.224Z,-0.24
2022-12-18T03:23:49.406Z,-0.23
2022-12-18T03:26:23.060Z,-0.22
2022-12-18T03:28:59.184Z,-0.22
2022-12-18T03:31:30.452Z,-0.24
2022-12-18T03:34:02.375Z,-0.24
2022-12-18T03:36:38.529Z,-0.24
2022-12-18T03:39:06.671Z,-0.23
2022-12-18T03:41:47.570Z,-0.24
2022-12-18T03:44:31.513Z,-0.26
2022-12-18T03:47:16.792Z,-0.26
2022-12-18T03:49:51.076Z,-0.27
2022-12-18T03:52:35.154Z,-0.26
2022-12-18T03:55:06.459Z,-0.25
2022-12-18T03:57:36.930Z,-0.26
2022-12-18T04:00:15.458Z,-0.26
2022-12-18T04:02:56.681Z,-0.26
2022-12-18T04:05:34.069Z,-0.26
2022-12-18T04:08:03.213Z,-0.26
2022-12-18T04:10:32.413Z,-0.27
2022-12-18T04:13:03.806Z,-0.27
2022-12-18T04:15:36.353Z,-0.27
2022-12-18T04:18:04.792Z,-0.29
2022-12-18T04:20:38.834Z,-0.29
2022-12-18T04:23:06.771Z,-0.29
2022-12-18T04:25:35.235Z,-0.30
2022-12-18T04:28:09.209Z,-0.31
2022-12-18T04:30:37.372Z,-0.31
2022-12-18T04:33:09.015Z,-0.32
2022-12-18T04:35:37.200Z,-0.32
2022-12-18T04:38:09.389Z,-0.32
2022-12-18T04:40:38.650Z,-0.31
2022-12-18T04:43:11.717Z,-0.31
2022-12-18T04:45:39.926Z,-0.29
2022-12-18T04:48:09.013Z,-0.29
2022-12-18T04:50:37.520Z,-0.27
2022-12-18T04:53:05.682Z,-0.27
2022-12-18T04:55:34.741Z,-0.26
2022-12-18T04:58:03.817Z,-0.26
2022-12-18T05:00:31.961Z,-0.25
2022-12-18T05:03:02.824Z,-0.25
2022-12-18T05:05:31.050Z,-0.24
2022-12-18T05:07:59.225Z,-0.24
2022-12-18T05:10:27.211Z,-0.24
2022-12-18T05:12:59.301Z,-0.23
2022-12-18T05:15:33.887Z,-0.22
2022-12-18T05:18:03.002Z,-0.23
2022-12-18T05:20:31.557Z,-0.24
2022-12-18T05:22:59.666Z,-0.24
2022-12-18T05:25:28.121Z,-0.25
2022-12-18T05:27:56.310Z,-0.25
2022-12-18T05:30:24.591Z,-0.23
2022-12-18T05:32:53.053Z,-0.24
2022-12-18T05:35:21.758Z,-0.23
2022-12-18T05:37:50.013Z,-0.22
2022-12-18T05:40:18.153Z,-0.21
2022-12-18T05:42:46.093Z,-0.20
2022-12-18T05:45:14.326Z,-0.17
2022-12-18T05:47:42.326Z,-0.16
2022-12-18T05:50:10.685Z,-0.15
2022-12-18T05:52:39.264Z,-0.14
2022-12-18T05:55:07.623Z,-0.14
2022-12-18T05:57:35.789Z,-0.15
2022-12-18T06:00:05.037Z,-0.18
2022-12-18T06:02:40.796Z,-0.19
2022-12-18T06:05:09.180Z,-0.19
2022-12-18T06:07:37.226Z,-0.19
2022-12-18T06:10:06.613Z,-0.19
2022-12-18T06:12:34.666Z,-0.20
2022-12-18T06:15:03.386Z,-0.22
2022-12-18T06:17:32.804Z,-0.24
2022-12-18T06:20:01.437Z,-0.25
2022-12-18T06:22:33.022Z,-0.27
2022-12-18T06:25:01.300Z,-0.29
2022-12-18T06:27:30.022Z,-0.31
2022-12-18T06:29:58.063Z,-0.33
2022-12-18T06:32:26.232Z,-0.32
2022-12-18T06:34:54.923Z,-0.32
2022-12-18T06:37:27.233Z,-0.33
2022-12-18T06:39:55.437Z,-0.33
2022-12-18T06:42:24.317Z,-0.32
2022-12-18T06:44:52.642Z,-0.32
2022-12-18T06:47:20.773Z,-0.32
2022-12-18T06:49:48.745Z,-0.34
2022-12-18T06:52:19.581Z,-0.33
2022-12-18T06:54:47.600Z,-0.31
2022-12-18T06:57:15.621Z,-0.30
2022-12-18T06:59:44.117Z,-0.30
2022-12-18T07:02:14.043Z,-0.28
2022-12-18T07:04:42.127Z,-0.26
2022-12-18T07:07:10.408Z,-0.25
2022-12-18T07:09:38.347Z,-0.25
2022-12-18T07:12:07.827Z,-0.27
2022-12-18T07:14:35.912Z,-0.27
2022-12-18T07:17:04.091Z,-0.27
2022-12-18T07:19:32.260Z,-0.28
2022-12-18T07:22:00.962Z,-0.29
2022-12-18T07:24:29.430Z,-0.28
2022-12-18T07:26:57.491Z,-0.28
2022-12-18T07:29:25.574Z,-0.28
2022-12-18T07:31:53.713Z,-0.28
2022-12-18T07:34:21.710Z,-0.28
2022-12-18T07:36:49.752Z,-0.26
2022-12-18T07:39:17.675Z,-0.24
2022-12-18T07:42:05.705Z,-0.21
2022-12-18T07:44:37.456Z,-0.17
2022-12-18T07:47:09.136Z,-0.12
2022-12-18T07:49:39.883Z,0.04
2022-12-18T07:52:08.129Z,0.16
2022-12-18T07:54:36.110Z,0.28
2022-12-18T07:57:07.459Z,0.47
2022-12-18T07:59:44.325Z,0.68
2022-12-18T08:02:12.505Z,0.85
2022-12-18T08:04:40.850Z,0.91
2022-12-18T08:07:08.870Z,0.91
2022-12-18T08:09:36.852Z,0.91
2022-12-18T08:12:06.009Z,0.92
2022-12-18T08:14:34.410Z,0.92
2022-12-18T08:17:02.496Z,0.91
2022-12-18T08:19:30.642Z,0.92
2022-12-18T08:21:58.592Z,0.91
2022-12-18T08:24:26.880Z,0.89
2022-12-18T08:27:20.891Z,0.87
2022-12-18T08:29:43.157Z,0.86
2022-12-18T08:32:11.419Z,0.88
2022-12-18T08:34:39.452Z,0.90
2022-12-18T08:37:07.635Z,0.90
2022-12-18T08:39:35.904Z,0.89
2022-12-18T08:42:23.052Z,0.87
2022-12-18T08:44:51.275Z,0.85
2022-12-18T08:47:19.335Z,0.82
2022-12-18T08:49:49.080Z,0.82
2022-12-18T08:52:17.038Z,0.81
2022-12-18T08:54:45.116Z,0.82
2022-12-18T08:57:13.088Z,0.81
2022-12-18T08:59:41.381Z,0.83
2022-12-18T09:02:14.129Z,0.87
2022-12-18T09:04:42.640Z,0.95
2022-12-18T09:07:10.713Z,1.03
2022-12-18T09:09:38.697Z,1.12
2022-12-18T09:12:07.105Z,1.19
2022-12-18T09:14:35.332Z,1.24
2022-12-18T09:17:03.595Z,1.24
2022-12-18T09:19:31.671Z,1.22
2022-12-18T09:21:59.681Z,1.20
2022-12-18T09:24:27.730Z,1.17
2022-12-18T09:26:57.829Z,1.14
2022-12-18T09:29:26.389Z,1.09
2022-12-18T09:31:54.421Z,1.05
2022-12-18T09:34:23.073Z,1.03
2022-12-18T09:36:52.261Z,1.03
2022-12-18T09:39:21.835Z,1.01
2022-12-18T09:41:54.909Z,0.99
2022-12-18T09:44:35.379Z,0.96
2022-12-18T09:47:19.889Z,0.95
2022-12-18T09:49:53.200Z,0.94
2022-12-18T09:52:46.495Z,0.95
2022-12-18T09:55:37.545Z,0.96
2022-12-18T09:58:18.144Z,0.95
2022-12-18T10:00:46.362Z,0.93
2022-12-18T10:03:16.886Z,0.93
2022-12-18T10:06:07.626Z,0.94
2022-12-18T10:08:48.301Z,0.94
2022-12-18T10:11:29.432Z,0.93
2022-12-18T10:14:24.944Z,0.92
2022-12-18T10:17:04.619Z,0.90
2022-12-18T10:19:35.679Z,0.89
2022-12-18T10:22:48.156Z,0.88
2022-12-18T10:25:38.076Z,0.89
2022-12-18T10:28:14.914Z,0.88
2022-12-18T10:30:44.250Z,0.90
2022-12-18T10:33:20.412Z,0.91
2022-12-18T10:35:51.675Z,0.90
2022-12-18T10:38:20.264Z,0.90
2022-12-18T10:41:03.536Z,0.90
2022-12-18T10:43:37.317Z,0.87
2022-12-18T10:46:13.936Z,0.83
2022-12-18T10:48:48.418Z,0.82
2022-12-18T10:51:27.535Z,0.79
2022-12-18T10:54:13.964Z,0.76
2022-12-18T10:56:42.802Z,0.73
2022-12-18T10:59:18.445Z,0.70
2022-12-18T11:01:52.482Z,0.69
2022-12-18T11:04:25.038Z,0.69
2022-12-18T11:07:04.686Z,0.69
2022-12-18T11:09:33.662Z,0.66
2022-12-18T11:12:05.018Z,0.64
2022-12-18T11:14:46.562Z,0.66
2022-12-18T11:17:26.641Z,0.68
2022-12-18T11:19:57.718Z,0.71
2022-12-18T11:22:34.446Z,0.71
2022-12-18T11:25:32.333Z,0.72
2022-12-18T11:28:02.077Z,0.73
2022-12-18T11:30:34.795Z,0.75
2022-12-18T11:33:14.303Z,0.76
2022-12-18T11:36:00.461Z,0.79
2022-12-18T11:38:36.550Z,0.84
2022-12-18T11:41:22.021Z,0.90
2022-12-18T11:44:04.391Z,0.96
2022-12-18T11:46:48.156Z,0.98
2022-12-18T11:49:27.889Z,1.04
2022-12-18T11:52:23.535Z,1.08
2022-12-18T11:55:00.990Z,1.09
2022-12-18T11:57:39.031Z,1.10
2022-12-18T12:00:17.820Z,1.15
2022-12-18T12:03:47.016Z,1.38
2022-12-18T12:06:32.233Z,2.04
2022-12-18T12:09:06.296Z,2.69
2022-12-18T12:11:34.336Z,3.29
2022-12-18T12:14:08.429Z,3.85
2022-12-18T12:16:46.911Z,4.32
2022-12-18T12:19:33.707Z,4.55
2022-12-18T12:22:15.100Z,4.82
2022-12-18T12:25:05.670Z,5.15
2022-12-18T12:27:46.300Z,5.14
2022-12-18T12:30:22.921Z,5.03
2022-12-18T12:32:57.146Z,4.85
2022-12-18T12:35:37.538Z,4.64
2022-12-18T12:38:11.540Z,4.39
2022-12-18T12:40:54.889Z,4.14
2022-12-18T12:43:49.573Z,3.82
2022-12-18T12:46:23.809Z,3.48
2022-12-18T12:48:58.825Z,3.20
2022-12-18T12:51:35.346Z,2.92
2022-12-18T12:54:07.754Z,2.68
2022-12-18T12:57:04.476Z,2.45
2022-12-18T12:59:46.713Z,2.26
2022-12-18T13:02:53.904Z,2.08
2022-12-18T13:05:28.419Z,1.95
2022-12-18T13:08:04.719Z,1.83
2022-12-18T13:10:41.488Z,1.69
2022-12-18T13:13:17.928Z,1.60
2022-12-18T13:16:09.323Z,1.53
2022-12-18T13:18:37.488Z,1.44
2022-12-18T13:21:20.183Z,1.38
2022-12-18T13:23:48.327Z,1.27
2022-12-18T13:26:26.312Z,1.21
2022-12-18T13:28:58.649Z,1.14
2022-12-18T13:31:42.533Z,1.06
2022-12-18T13:34:26.274Z,0.97
2022-12-18T13:36:56.712Z,0.90
2022-12-18T13:39:35.232Z,0.89
2022-12-18T13:42:07.174Z,0.89
2022-12-18T13:44:40.924Z,0.90
2022-12-18T13:47:33.761Z,0.91
2022-12-18T13:50:10.518Z,0.89
2022-12-18T13:52:40.530Z,0.85
2022-12-18T13:55:19.000Z,0.80
2022-12-18T13:57:47.830Z,0.72
2022-12-18T14:00:32.279Z,0.63
2022-12-18T14:03:01.205Z,0.52
2022-12-18T14:05:37.172Z,0.41
2022-12-18T14:08:11.208Z,0.29
2022-12-18T14:10:49.204Z,0.18
2022-12-18T14:13:43.135Z,0.06
2022-12-18T14:16:15.600Z,-0.07
2022-12-18T14:19:08.461Z,-0.20
2022-12-18T14:21:40.931Z,-0.32
2022-12-18T14:24:21.597Z,-0.41
2022-12-18T14:26:51.201Z,-0.49
2022-12-18T14:29:23.736Z,-0.54
2022-12-18T14:32:16.500Z,-0.60
2022-12-18T14:34:52.899Z,-0.65
2022-12-18T14:37:28.350Z,-0.71
2022-12-18T14:40:08.736Z,-0.77
2022-12-18T14:42:38.986Z,-0.84
2022-12-18T14:45:43.771Z,-0.89
2022-12-18T14:48:12.911Z,-0.98
2022-12-18T14:50:44.003Z,-1.06
2022-12-18T14:53:22.413Z,-1.13
2022-12-18T14:55:50.847Z,-1.21
2022-12-18T14:58:19.322Z,-1.31
2022-12-18T15:00:47.882Z,-1.37
2022-12-18T15:03:21.199Z,-1.43
2022-12-18T15:05:49.552Z,-1.51
2022-12-18T15:08:36.476Z,-1.59
2022-12-18T15:11:25.039Z,-1.66
2022-12-18T15:13:52.992Z,-1.73
2022-12-18T15:16:21.589Z,-1.80
2022-12-18T15:18:49.801Z,-1.88
2022-12-18T15:21:20.425Z,-1.96
2022-12-18T15:23:53.825Z,-2.07
2022-12-18T15:26:23.208Z,-2.15
2022-12-18T15:28:56.731Z,-2.22
2022-12-18T15:31:34.405Z,-2.30
2022-12-18T15:34:13.565Z,-2.37
2022-12-18T15:36:41.961Z,-2.44
2022-12-18T15:39:13.588Z,-2.50
2022-12-18T15:41:41.872Z,-2.56
2022-12-18T15:44:24.372Z,-2.62
2022-12-18T15:46:52.760Z,-2.69
2022-12-18T15:49:24.539Z,-2.72
2022-12-18T15:51:55.870Z,-2.77
2022-12-18T15:54:44.111Z,-2.83
2022-12-18T15:57:27.726Z,-2.90
2022-12-18T16:00:00.186Z,-2.97
2022-12-18T16:02:29.730Z,-3.03
2022-12-18T16:04:58.324Z,-3.10
2022-12-18T16:07:29.202Z,-3.16
2022-12-18T16:09:59.120Z,-3.22
2022-12-18T16:12:29.941Z,-3.27
2022-12-18T16:14:58.283Z,-3.33
2022-12-18T16:17:26.342Z,-3.38
2022-12-18T16:19:54.937Z,-3.42
2022-12-18T16:22:28.820Z,-3.47
2022-12-18T16:24:58.248Z,-3.52
2022-12-18T16:27:26.631Z,-3.58
2022-12-18T16:29:54.775Z,-3.63
2022-12-18T16:32:23.698Z,-3.69
2022-12-18T16:34:52.828Z,-3.74
2022-12-18T16:37:20.798Z,-3.79
2022-12-18T16:39:48.932Z,-3.84
2022-12-18T16:42:21.262Z,-3.88
2022-12-18T16:44:50.690Z,-3.91
2022-12-18T16:47:20.223Z,-3.94
2022-12-18T16:49:51.978Z,-3.97
2022-12-18T16:52:21.168Z,-4.00
2022-12-18T16:54:49.456Z,-4.04
2022-12-18T16:57:20.317Z,-4.06
2022-12-18T16:59:49.985Z,-4.09
2022-12-18T17:02:28.569Z,-4.12
2022-12-18T17:04:58.417Z,-4.18
2022-12-18T17:07:28.459Z,-4.22
2022-12-18T17:09:57.000Z,-4.25
2022-12-18T17:12:26.853Z,-4.26
2022-12-18T17:14:55.012Z,-4.26
2022-12-18T17:17:24.096Z,-4.27
2022-12-18T17:19:52.940Z,-4.28
2022-12-18T17:22:23.495Z,-4.30
2022-12-18T17:24:51.972Z,-4.31
2022-12-18T17:27:19.987Z,-4.34
2022-12-18T17:29:49.108Z,-4.38
2022-12-18T17:32:17.942Z,-4.41
2022-12-18T17:34:46.810Z,-4.43
2022-12-18T17:37:15.743Z,-4.46
2022-12-18T17:39:44.654Z,-4.49
2022-12-18T17:42:14.901Z,-4.52
2022-12-18T17:44:44.981Z,-4.56
2022-12-18T17:47:14.490Z,-4.61
2022-12-18T17:49:42.598Z,-4.64
2022-12-18T17:52:10.939Z,-4.67
2022-12-18T17:54:42.153Z,-4.70
2022-12-18T17:57:10.775Z,-4.72
2022-12-18T17:59:39.007Z,-4.75
2022-12-18T18:02:07.622Z,-4.78
2022-12-18T18:04:36.521Z,-4.80
2022-12-18T18:07:04.694Z,-4.83
2022-12-18T18:09:32.721Z,-4.89
2022-12-18T18:12:19.446Z,-4.93
2022-12-18T18:14:47.438Z,-4.96
2022-12-18T18:17:15.827Z,-4.99
2022-12-18T18:19:44.214Z,-5.03
2022-12-18T18:22:19.235Z,-5.07
2022-12-18T18:24:48.334Z,-5.12
2022-12-18T18:27:16.925Z,-5.16
2022-12-18T18:29:45.253Z,-5.21
2022-12-18T18:32:13.330Z,-5.24
2022-12-18T18:34:41.960Z,-5.28
2022-12-18T18:37:11.323Z,-5.31
2022-12-18T18:39:39.940Z,-5.34
2022-12-18T18:42:08.046Z,-5.37
2022-12-18T18:44:36.901Z,-5.40
2022-12-18T18:47:06.921Z,-5.42
2022-12-18T18:49:37.865Z,-5.44
2022-12-18T18:52:07.306Z,-5.45
2022-12-18T18:54:35.533Z,-5.47
2022-12-18T18:57:20.291Z,-5.49
2022-12-18T18:59:49.377Z,-5.51
2022-12-18T19:02:18.010Z,-5.53
2022-12-18T19:04:47.121Z,-5.55
2022-12-18T19:07:23.841Z,-5.56
2022-12-18T19:10:04.761Z,-5.58
2022-12-18T19:12:53.300Z,-5.61
2022-12-18T19:15:22.058Z,-5.63
2022-12-18T19:17:50.276Z,-5.64
2022-12-18T19:20:19.503Z,-5.65
2022-12-18T19:22:49.001Z,-5.67
2022-12-18T19:25:40.170Z,-5.66
2022-12-18T19:28:13.543Z,-5.68
2022-12-18T19:30:56.068Z,-5.69
2022-12-18T19:33:45.180Z,-5.71
2022-12-18T19:36:23.256Z,-5.72
2022-12-18T19:38:53.834Z,-5.73
2022-12-18T19:41:23.060Z,-5.74
2022-12-18T19:43:52.786Z,-5.75
2022-12-18T19:46:23.360Z,-5.76
2022-12-18T19:48:52.107Z,-5.78
2022-12-18T19:51:25.444Z,-5.79
2022-12-18T19:53:58.930Z,-5.81
2022-12-18T19:56:32.134Z,-5.83
2022-12-18T19:59:01.223Z,-5.84
2022-12-18T20:01:33.047Z,-5.86
2022-12-18T20:04:01.912Z,-5.89
2022-12-18T20:06:34.296Z,-5.91
2022-12-18T20:09:06.092Z,-5.94
2022-12-18T20:11:40.248Z,-5.96
2022-12-18T20:14:12.394Z,-5.99
2022-12-18T20:16:41.874Z,-6.01
2022-12-18T20:19:13.490Z,-6.03
2022-12-18T20:21:42.279Z,-6.06
2022-12-18T20:24:10.668Z,-6.08
2022-12-18T20:26:40.620Z,-6.10
2022-12-18T20:29:08.707Z,-6.14
2022-12-18T20:31:37.300Z,-6.17
2022-12-18T20:34:07.014Z,-6.19
2022-12-18T20:36:36.224Z,-6.22
2022-12-18T20:39:10.054Z,-6.25
2022-12-18T20:41:41.969Z,-6.28
2022-12-18T20:44:22.216Z,-6.30
2022-12-18T20:46:55.301Z,-6.33
2022-12-18T20:49:25.436Z,-6.34
2022-12-18T20:51:56.484Z,-6.34
2022-12-18T20:54:26.945Z,-6.33
2022-12-18T20:56:55.486Z,-6.32
2022-12-18T20:59:25.730Z,-6.32
2022-12-18T21:01:55.089Z,-6.33
2022-12-18T21:04:23.996Z,-6.33
2022-12-18T21:06:56.759Z,-6.33
2022-12-18T21:09:37.977Z,-6.36
2022-12-18T21:12:42.728Z,-6.37
2022-12-18T21:15:18.307Z,-6.38
2022-12-18T21:17:46.617Z,-6.39
2022-12-18T21:20:18.167Z,-6.41
2022-12-18T21:22:47.449Z,-6.43
2022-12-18T21:25:15.620Z,-6.47
2022-12-18T21:27:43.882Z,-6.50
2022-12-18T21:30:12.257Z,-6.54
2022-12-18T21:32:41.050Z,-6.57
2022-12-18T21:35:09.536Z,-6.60
2022-12-18T21:37:37.713Z,-6.64
2022-12-18T21:40:06.642Z,-6.65
2022-12-18T21:42:52.977Z,-6.68
2022-12-18T21:45:21.491Z,-6.70
2022-12-18T21:47:49.449Z,-6.73
2022-12-18T21:50:18.082Z,-6.76
2022-12-18T21:52:46.183Z,-6.77
2022-12-18T21:55:14.204Z,-6.78
2022-12-18T21:57:42.217Z,-6.78
2022-12-18T22:00:18.901Z,-6.80
2022-12-18T22:03:03.135Z,-6.80
2022-12-18T22:05:37.880Z,-6.82
2022-12-18T22:08:07.051Z,-6.83
2022-12-18T22:10:36.736Z,-6.86
2022-12-18T22:13:05.674Z,-6.88
2022-12-18T22:15:34.321Z,-6.91
2022-12-18T22:18:02.432Z,-6.92
2022-12-18T22:20:30.651Z,-6.92
2022-12-18T22:23:02.878Z,-6.94
2022-12-18T22:25:35.771Z,-6.97
2022-12-18T22:28:26.059Z,-6.99
2022-12-18T22:30:59.091Z,-7.03
2022-12-18T22:33:28.524Z,-7.07
2022-12-18T22:35:56.688Z,-7.10
2022-12-18T22:38:25.104Z,-7.11
2022-12-18T22:40:54.515Z,-7.13
2022-12-18T22:43:22.577Z,-7.15
2022-12-18T22:45:50.652Z,-7.17
2022-12-18T22:48:18.819Z,-7.20
2022-12-18T22:50:47.305Z,-7.22
2022-12-18T22:53:17.392Z,-7.23
2022-12-18T22:55:45.432Z,-7.27
2022-12-18T22:58:13.501Z,-7.29
2022-12-18T23:00:41.676Z,-7.29
2022-12-18T23:03:10.311Z,-7.31
2022-12-18T23:05:38.621Z,-7.33
2022-12-18T23:08:06.689Z,-7.35
2022-12-18T23:10:38.375Z,-7.36
2022-12-18T23:13:06.431Z,-7.38
2022-12-18T23:15:34.607Z,-7.39
2022-12-18T23:18:02.685Z,-7.42
2022-12-18T23:20:30.660Z,-7.43
2022-12-18T23:22:58.736Z,-7.45
2022-12-18T23:25:26.796Z,-7.48
2022-12-18T23:27:54.877Z,-7.50
2022-12-18T23:30:22.892Z,-7.52
2022-12-18T23:32:51.216Z,-7.52
2022-12-18T23:35:19.398Z,-7.53
2022-12-18T23:38:04.477Z,-7.55
2022-12-18T23:40:32.635Z,-7.55
2022-12-18T23:43:00.810Z,-7.56
2022-12-18T23:45:29.501Z,-7.55
2022-12-18T23:47:57.782Z,-7.54
2022-12-18T23:50:29.382Z,-7.53
2022-12-18T23:53:04.738Z,-7.54
2022-12-18T23:55:39.527Z,-7.55
2022-12-18T23:58:15.146Z,-7.56
